Terminal Aerodrome Forecast
Issued by NWS

Home | Current Version | Previous Version | Text Only | Print | Product List | Glossary On
Versions: 1 2 3 4 5 6 7 8 9 10 11 12 13 14 15 16 17
765
FTUS43 KMQT 232320
TAFCMX
TAF
KCMX 232320Z 2400/2424 36010KT P6SM BKN008
     FM240100 36010KT P6SM BKN015
     FM240200 36008KT P6SM BKN020
     FM240600 03004KT P6SM BKN015
     FM240700 04004KT P6SM BKN020
     FM241200 00000KT P6SM BKN015
     FM242300 00000KT P6SM BKN040=

USA.gov is the U.S. government's official web portal to all federal, state and local government web resources and services.